createdAt,value
2023-01-10T00:09:33.459Z,6.9
2023-01-10T00:15:28.536Z,6.8
2023-01-10T00:27:50.575Z,6.9
2023-01-10T00:33:44.177Z,7
2023-01-10T00:39:38.097Z,6.9
2023-01-10T00:52:04.402Z,6.9
2023-01-10T00:58:19.412Z,6.7
2023-01-10T01:04:31.776Z,6.8
2023-01-10T01:10:28.811Z,6.7
2023-01-10T01:16:24.177Z,6.8
2023-01-10T01:22:21.054Z,6.7
2023-01-10T01:28:42.288Z,6.8
2023-01-10T01:35:16.966Z,6.9
2023-01-10T01:47:54.691Z,6.7
2023-01-10T01:54:23.048Z,6.7
2023-01-10T02:06:52.445Z,6.9
2023-01-10T02:12:55.418Z,6.9
2023-01-10T02:18:55.109Z,7
2023-01-10T02:31:36.226Z,6.8
2023-01-10T02:37:58.744Z,6.8
2023-01-10T02:44:20.760Z,6.8
2023-01-10T02:50:25.493Z,6.9
2023-01-10T03:02:40.100Z,6.8
2023-01-10T03:08:34.510Z,6.9
2023-01-10T03:14:32.518Z,6.8
2023-01-10T03:20:23.786Z,6.8
2023-01-10T03:39:03.131Z,6.7
2023-01-10T03:45:09.295Z,6.8
2023-01-10T03:51:13.499Z,6.8
2023-01-10T03:57:27.365Z,6.8
2023-01-10T04:03:44.371Z,6.7
2023-01-10T04:09:40.039Z,6.6
2023-01-10T04:15:51.204Z,6.6
2023-01-10T04:21:48.112Z,6.3
2023-01-10T04:27:43.777Z,6.3
2023-01-10T04:33:43.151Z,6.3
2023-01-10T04:45:55.212Z,6.2
2023-01-10T04:52:07.245Z,6.1
2023-01-10T04:58:08.869Z,6.1
2023-01-10T05:04:02.719Z,5.9
2023-01-10T05:10:01.888Z,5.8
2023-01-10T05:15:50.499Z,5.9
2023-01-10T05:21:41.568Z,5.8
2023-01-10T05:27:32.259Z,5.4
2023-01-10T05:33:23.100Z,5.6
2023-01-10T05:39:13.869Z,5.4
2023-01-10T05:45:04.405Z,5.3
2023-01-10T05:50:56.715Z,5.3
2023-01-10T05:56:47.454Z,5.4
2023-01-10T06:02:38.462Z,5
2023-01-10T06:10:48.004Z,5.4
2023-01-10T06:16:36.991Z,5.5
2023-01-10T06:22:27.623Z,5.4
2023-01-10T06:28:19.302Z,5.4
2023-01-10T06:34:10.308Z,5.4
2023-01-10T06:40:02.609Z,5.4
2023-01-10T06:45:53.051Z,5.4
2023-01-10T06:51:45.094Z,5.5
2023-01-10T06:57:36.209Z,5.4
2023-01-10T07:03:27.318Z,5.4
2023-01-10T07:09:19.850Z,5.4
2023-01-10T07:15:11.408Z,5.4
2023-01-10T07:21:02.219Z,5.2
2023-01-10T07:28:03.350Z,5.3
2023-01-10T07:33:53.460Z,5.2
2023-01-10T07:39:44.387Z,5.1
2023-01-10T07:45:34.723Z,5.1
2023-01-10T07:51:24.223Z,4.9
2023-01-10T07:57:15.274Z,4.8
2023-01-10T08:03:06.464Z,4.9
2023-01-10T08:08:59.375Z,4.7
2023-01-10T08:14:50.404Z,4.8
2023-01-10T08:20:42.161Z,4.5
2023-01-10T08:26:33.500Z,4.7
2023-01-10T08:32:26.203Z,4.6
2023-01-10T08:38:17.340Z,4.6
2023-01-10T08:44:09.667Z,4.8
2023-01-10T08:50:00.871Z,4.7
2023-01-10T08:55:53.857Z,4.6
2023-01-10T09:01:44.668Z,4.7
2023-01-10T09:07:36.567Z,4.8
2023-01-10T09:13:27.304Z,4.8
2023-01-10T09:19:17.693Z,4.8
2023-01-10T09:25:09.019Z,5
2023-01-10T09:31:00.647Z,5.1
2023-01-10T09:36:51.953Z,5.2
2023-01-10T09:42:42.562Z,5.3
2023-01-10T09:48:33.796Z,5.6
2023-01-10T09:54:26.389Z,5.9
2023-01-10T10:00:17.669Z,6.1
2023-01-10T10:06:12.190Z,6.2
2023-01-10T10:12:03.162Z,6.4
2023-01-10T10:17:54.679Z,6.5
2023-01-10T10:23:45.971Z,6.6
2023-01-10T10:29:37.920Z,6.7
2023-01-10T10:35:29.459Z,6.8
2023-01-10T10:41:20.867Z,6.9
2023-01-10T10:47:12.057Z,7.1
2023-01-10T10:53:05.255Z,7.2
2023-01-10T10:58:57.661Z,7.3
2023-01-10T11:04:48.338Z,7.3
2023-01-10T11:10:39.292Z,7.4
2023-01-10T11:16:28.620Z,7.4
2023-01-10T11:22:18.069Z,7.5
2023-01-10T11:28:11.067Z,7.6
2023-01-10T11:34:01.545Z,7.6
2023-01-10T11:39:52.927Z,7.7
2023-01-10T11:45:43.037Z,7.7
2023-01-10T11:51:33.364Z,7.6
2023-01-10T11:59:43.017Z,7.7
2023-01-10T12:05:37.981Z,7.7
2023-01-10T12:11:28.545Z,7.7
2023-01-10T12:17:21.067Z,7.7
2023-01-10T12:23:13.094Z,7.8
2023-01-10T12:29:05.119Z,7.8
2023-01-10T12:34:58.558Z,7.8
2023-01-10T12:40:50.128Z,7.8
2023-01-10T12:47:05.597Z,7.8
2023-01-10T12:53:00.218Z,7.7
2023-01-10T12:58:50.633Z,7.7
2023-01-10T13:04:40.630Z,7.8
2023-01-10T13:10:31.807Z,7.8
2023-01-10T13:16:23.032Z,7.8
2023-01-10T13:22:14.433Z,7.8
2023-01-10T13:28:04.570Z,7.9
2023-01-10T13:33:56.157Z,7.9
2023-01-10T13:39:50.990Z,7.9
2023-01-10T13:45:42.252Z,7.8
2023-01-10T13:51:35.260Z,7.9
2023-01-10T13:57:26.975Z,7.8
2023-01-10T14:04:26.278Z,7.9
2023-01-10T14:10:17.322Z,7.8
2023-01-10T14:16:08.110Z,7.8
2023-01-10T14:21:58.658Z,7.8
2023-01-10T14:29:03.157Z,7.7
2023-01-10T14:34:54.095Z,7.7
2023-01-10T14:40:46.244Z,7.7
2023-01-10T14:46:36.806Z,7.6
2023-01-10T14:52:27.131Z,7.6
2023-01-10T14:58:16.466Z,7.6
2023-01-10T15:04:07.099Z,7.4
2023-01-10T15:09:58.154Z,7.4
2023-01-10T15:15:54.517Z,7.4
2023-01-10T15:28:10.192Z,7.4
2023-01-10T15:34:18.592Z,7.3
2023-01-10T15:40:17.877Z,7.4
2023-01-10T15:52:50.928Z,7.3
2023-01-10T15:59:18.584Z,7.3
2023-01-10T16:12:06.119Z,7.1
2023-01-10T16:18:25.426Z,7
2023-01-10T16:24:41.327Z,7.1
2023-01-10T16:30:49.312Z,6.8
2023-01-10T16:43:39.765Z,6.8
2023-01-10T16:49:50.030Z,6.7
2023-01-10T16:55:49.497Z,6.7
2023-01-10T17:02:07.447Z,6.7
2023-01-10T17:08:04.661Z,6.8
2023-01-10T17:14:21.835Z,6.7
2023-01-10T17:20:47.149Z,6.7
2023-01-10T17:27:05.130Z,6.7
2023-01-10T17:39:36.927Z,6.6
2023-01-10T17:46:01.768Z,6.6
2023-01-10T17:52:10.940Z,6.7
2023-01-10T17:58:18.032Z,6.6
2023-01-10T18:10:11.525Z,6.6
2023-01-10T18:22:30.426Z,6.6
2023-01-10T18:41:49.095Z,6.6
2023-01-10T19:01:18.150Z,6.6
2023-01-10T19:20:47.681Z,6.6
2023-01-10T19:27:00.159Z,6.6
2023-01-10T20:10:43.131Z,6.7
2023-01-10T20:16:47.680Z,6.7
2023-01-10T20:36:27.389Z,6.8
2023-01-10T20:42:41.432Z,6.7
2023-01-10T20:48:40.432Z,6.8
2023-01-10T21:00:56.600Z,6.8
2023-01-10T21:13:59.915Z,6.7
2023-01-10T21:19:50.187Z,6.8
2023-01-10T21:25:41.303Z,6.8
2023-01-10T21:31:32.849Z,6.9
2023-01-10T21:37:25.858Z,6.9
2023-01-10T21:43:17.238Z,6.9
2023-01-10T21:49:12.085Z,6.8
2023-01-10T21:55:02.144Z,6.8
2023-01-10T22:00:52.167Z,6.8
2023-01-10T22:06:42.668Z,6.8
2023-01-10T22:12:33.034Z,6.8
2023-01-10T22:18:23.912Z,6.8
2023-01-10T22:24:12.681Z,6.8
2023-01-10T22:30:03.210Z,6.8
2023-01-10T22:35:53.883Z,6.9
2023-01-10T22:41:42.820Z,6.9
2023-01-10T22:47:32.713Z,6.9
2023-01-10T22:53:26.022Z,6.9
2023-01-10T22:59:16.748Z,6.9
2023-01-10T23:05:07.286Z,6.8
2023-01-10T23:10:58.674Z,6.8
2023-01-10T23:16:49.395Z,6.7
2023-01-10T23:22:39.797Z,6.7
2023-01-10T23:28:29.842Z,6.8
2023-01-10T23:34:20.196Z,6.8
2023-01-10T23:40:10.640Z,6.9
2023-01-10T23:46:01.066Z,6.9
2023-01-10T23:51:52.625Z,6.9
2023-01-10T23:57:43.681Z,7
